Terminal Aerodrome Forecast
Issued by NWS Cleveland, OH

Home | Current Version | Previous Version | Text Only | Print | Product List | Glossary Off
Versions: 1 2 3 4 5 6 7 8 9 10 11 12 13 14 15 16 17 18 19 20 21 22 23 24 25 26 27 28 29 30 31 32 33 34 35 36 37

000
FTUS41 KCLE 201100
TAFYNG
TAF
KYNG 201120Z 2012/2112 17008KT 6SM BR VCTS SCT015 OVC035CB
      TEMPO 2012/2013 2SM -TSRA BR BKN004 OVC025CB
     FM201400 19006KT P6SM SCT004 BKN025
     FM201800 24010KT P6SM VCTS BKN035CB OVC150
     FM210100 24005KT P6SM BKN040 BKN150
     FM211000 VRB03KT 3SM BR SCT015=

USA.gov is the U.S. government's official web portal to all federal, state and local government web resources and services.